Latest Weather Observations for Mount Keith

IDW60801

Issued at 8:32 am WST Saturday 20 December 2014 (issued every 30 minutes, with the page automatically refreshed every 10 minutes)

About weather observations | Map of weather stations | Latest weather observations for WA | Other Formats
Station Details ID: 512019 Name: MOUNT KEITH Lat: -27.29 Lon: 120.55 Height: 542.33 m
Data from the previous 72 hours. | See also: Recent months for locations in Western Australia
Date/Time
WST
Temp
°C
App
Temp
°C
Dew
Point
Rel
Hum
%
Delta-T
°C
Wind Press
QNH
hPa
Press
MSL
hPa
Rain
since 9 am
mm
Dir
 
Spd
km/h
Gust
km/h
Spd
kts
Gust
kts
20/08:30am 26.8 24.1 19.2 63 5.0 NNE 32 43 17 23 1012.4 1008.3 0.4
20/08:00am 25.6 22.7 19.3 68 4.1 NNE 33 44 18 24 1012.8 1008.8 0.4
20/07:30am 23.5 22.9 20.4 83 2.1 NE 24 35 13 19 1013.4 1009.3 0.4
20/07:00am 23.0 22.6 20.1 84 1.9 NE 22 35 12 19 1013.5 1009.4 0.4
20/06:30am 22.5 22.1 20.2 87 1.5 NE 22 30 12 16 1013.3 1009.2 0.4
20/06:00am 22.7 22.6 19.9 84 1.8 NE 20 26 11 14 1012.9 1008.9 0.4
20/05:30am 22.5 22.4 19.9 85 1.7 ENE 20 28 11 15 1012.7 1008.6 0.4
20/05:00am 22.6 22.4 19.8 84 1.8 ENE 20 26 11 14 1012.7 1008.6 0.4
20/04:30am 22.6 22.9 19.6 83 2.0 ENE 17 24 9 13 1012.3 1008.2 0.2
20/04:00am 22.8 23.0 19.4 81 2.2 ENE 17 26 9 14 1012.2 1008.1 0.2
20/03:30am 22.8 22.6 19.4 81 2.2 NE 19 26 10 14 1012.2 1008.1 0.2
20/03:00am 23.0 23.2 19.4 80 2.3 NE 17 24 9 13 1012.0 1007.9 0.2
20/02:30am 23.2 23.3 19.1 78 2.7 NE 17 22 9 12 1011.8 1007.7 0.2
20/02:00am 23.3 22.8 18.6 75 3.0 NE 19 26 10 14 1011.6 1007.5 0.2
20/01:30am 23.5 23.7 18.6 74 3.2 NE 15 20 8 11 1011.6 1007.5 0.2
20/01:00am 23.7 23.5 18.6 73 3.3 NE 17 24 9 13 1012.0 1007.9 0.2
20/12:30am 23.6 23.4 18.5 73 3.3 ENE 17 26 9 14 1012.1 1008.0 0.2
20/12:00am 23.4 23.6 18.5 74 3.2 E 15 20 8 11 1012.6 1008.5 0.2
 
Date/Time
WST
Temp
°C
App
Temp
°C
Dew
Point
Rel
Hum
%
Delta-T
°C
Wind Press
QNH
hPa
Press
MSL
hPa
Rain
since 9 am
mm
Dir
 
Spd
km/h
Gust
km/h
Spd
kts
Gust
kts
19/11:30pm 23.5 23.0 18.6 74 3.2 ENE 19 26 10 14 1013.0 1009.0 0.2
19/11:00pm 23.3 22.6 18.6 75 3.0 ENE 20 26 11 14 1012.9 1008.9 0.2
19/10:30pm 23.6 22.4 18.5 73 3.3 ENE 22 30 12 16 1013.3 1009.2 0.2
19/10:00pm 23.6 22.2 18.7 74 3.2 ENE 24 39 13 21 1013.6 1009.5 0.2
19/09:30pm 23.2 22.1 19.4 79 2.5 ENE 24 39 13 21 1014.1 1010.0 0.2
19/09:00pm 23.3 22.5 19.2 78 2.7 E 22 35 12 19 1014.3 1010.2 0.2
19/08:30pm 23.1 23.1 20.2 84 1.9 E 20 30 11 16 1013.8 1009.7 0.2
19/08:00pm 22.7 21.5 20.0 85 1.8 SE 26 33 14 18 1014.1 1010.0 0.2
19/07:30pm 22.5 20.7 20.4 88 1.4 SSE 30 44 16 24 1015.1 1011.0 0.2
19/07:11pm 25.2 26.0 19.8 72 3.6 ESE 15 28 8 15 1015.1 1011.0 0.0
19/07:00pm 25.1 24.8 19.5 71 3.7 ESE 20 28 11 15 1013.0 1009.0 0.0
19/06:30pm 25.4 24.1 19.1 68 4.1 ENE 24 33 13 18 1012.4 1008.3 0.0
19/06:00pm 25.5 24.0 19.4 69 4.0 E 26 37 14 20 1011.7 1007.6 0.0
19/05:30pm 26.0 24.1 19.4 67 4.3 E 28 41 15 22 1012.1 1008.0 0.0
19/05:00pm 27.1 25.7 18.9 61 5.4 ENE 24 32 13 17 1011.8 1007.7 0.0
19/04:30pm 28.2 28.4 18.6 56 6.3 ENE 15 24 8 13 1011.7 1007.6 0.0
19/04:00pm 26.3 23.7 18.7 63 5.0 NE 30 44 16 24 1010.6 1006.5 0.0
19/03:40pm 26.4 23.8 17.7 58 5.6 N 28 48 15 26 1011.3 1007.2 0.0
19/03:30pm 27.8 25.5 18.5 57 6.1 N 28 41 15 22 1010.8 1006.7 0.0
19/03:12pm 28.5 26.3 18.6 55 6.5 NNW 28 63 15 34 1011.5 1007.4 0.0
19/03:00pm 32.3 33.4 17.0 40 9.9 W 7 28 4 15 1010.6 1006.5 0.0
19/02:30pm 34.7 33.9 15.1 31 12.5 SSE 13 19 7 10 1010.4 1006.3 0.0
19/02:00pm 35.4 33.7 14.6 28 13.2 E 17 24 9 13 1010.5 1006.4 0.0
19/01:30pm 35.8 34.2 15.0 29 13.3 NE 17 32 9 17 1011.4 1007.3 0.0
19/01:00pm 36.6 33.3 15.1 27 13.8 NE 26 35 14 19 1011.7 1007.6 0.0
19/12:30pm 36.3 33.1 15.4 28 13.4 NE 26 35 14 19 1012.2 1008.1 0.0
19/12:00pm 36.9 34.5 15.4 28 13.8 ENE 22 37 12 20 1012.4 1008.3 0.0
19/11:30am 35.8 32.5 15.0 29 13.3 ENE 26 35 14 19 1012.9 1008.9 0.0
19/11:00am 35.5 32.5 14.7 28 13.2 ENE 24 35 13 19 1013.6 1009.5 0.0
19/10:30am 34.6 30.9 14.0 29 12.9 ENE 26 35 14 19 1014.0 1009.9 0.0
19/10:00am 33.1 28.8 13.2 30 12.2 NE 28 39 15 21 1014.4 1010.3 0.0
19/09:30am 33.4 29.8 12.9 28 12.6 ENE 24 39 13 21 1014.6 1010.6 0.0
19/09:00am 32.2 27.2 13.4 32 11.6 ENE 32 43 17 23 1014.7 1010.7 0.0
19/08:30am 31.2 25.8 12.1 31 11.5 ENE 32 46 17 25 1015.1 1011.0 0.0
19/08:00am 30.4 25.0 10.9 30 11.5 E 30 43 16 23 1015.2 1011.1 0.0
19/07:30am 29.4 23.8 10.0 30 11.2 ENE 30 43 16 23 1014.9 1010.9 0.0
19/07:00am 28.6 23.4 8.8 29 11.2 ENE 26 39 14 21 1014.6 1010.6 0.0
19/06:30am 27.8 22.2 8.6 30 10.7 E 28 41 15 22 1014.5 1010.5 0.0
19/06:00am 27.2 22.3 8.6 31 10.4 E 24 33 13 18 1014.2 1010.1 0.0
19/05:30am 26.6 22.6 9.0 33 9.9 E 20 28 11 15 1014.0 1009.9 0.0
19/05:00am 26.5 22.8 9.4 34 9.6 E 19 26 10 14 1013.6 1009.5 0.0
19/04:30am 26.7 22.8 9.5 34 9.7 E 20 26 11 14 1013.4 1009.3 0.0
19/04:00am 26.9 23.3 9.7 34 9.8 E 19 26 10 14 1013.3 1009.2 0.0
19/03:30am 27.3 23.4 9.6 33 10.1 E 20 26 11 14 1013.0 1009.0 0.0
19/03:00am 27.6 23.8 9.9 33 10.1 E 20 28 11 15 1012.9 1008.9 0.0
19/02:30am 28.0 24.2 9.8 32 10.4 E 20 28 11 15 1012.6 1008.5 0.0
19/02:00am 28.4 24.7 10.1 32 10.5 E 20 30 11 16 1012.4 1008.3 0.0
19/01:30am 28.9 24.4 10.1 31 10.8 E 24 35 13 19 1012.2 1008.1 0.0
19/01:00am 29.2 25.2 10.3 31 11.0 E 22 32 12 17 1012.3 1008.2 0.0
19/12:30am 29.7 25.4 10.8 31 11.1 E 24 33 13 18 1012.4 1008.3 0.0
19/12:00am 30.1 25.8 10.6 30 11.4 E 24 32 13 17 1012.5 1008.4 0.0
 
Date/Time
WST
Temp
°C
App
Temp
°C
Dew
Point
Rel
Hum
%
Delta-T
°C
Wind Press
QNH
hPa
Press
MSL
hPa
Rain
since 9 am
mm
Dir
 
Spd
km/h
Gust
km/h
Spd
kts
Gust
kts
18/11:30pm 30.3 26.8 10.8 30 11.4 E 20 28 11 15 1012.7 1008.6 0.0
18/11:00pm 30.4 27.1 10.9 30 11.5 ESE 19 26 10 14 1012.8 1008.8 0.0
18/10:30pm 30.8 27.2 10.7 29 11.8 ESE 20 26 11 14 1012.8 1008.8 0.0
18/10:00pm 31.2 28.0 11.1 29 11.9 ESE 19 28 10 15 1012.8 1008.8 0.0
18/09:30pm 31.5 28.2 10.8 28 12.2 ESE 19 24 10 13 1012.7 1008.6 0.0
18/09:00pm 31.9 28.5 10.6 27 12.6 ESE 19 26 10 14 1012.4 1008.3 0.0
18/08:30pm 32.4 28.4 10.4 26 12.9 SE 22 28 12 15 1012.1 1008.0 0.0
18/08:00pm 32.9 29.8 10.3 25 13.3 SE 17 20 9 11 1011.9 1007.8 0.0
18/07:30pm 33.4 30.2 10.1 24 13.7 SE 17 20 9 11 1011.7 1007.6 0.0
18/07:00pm 33.9 30.5 10.5 24 13.9 SE 19 26 10 14 1011.5 1007.4 0.0
18/06:30pm 34.5 31.1 10.4 23 14.3 SE 19 24 10 13 1011.3 1007.2 0.0
18/06:00pm 35.2 32.5 10.3 22 14.8 SE 15 19 8 10 1010.9 1006.8 0.0
18/05:30pm 35.1 31.6 10.2 22 14.8 SE 19 24 10 13 1010.9 1006.8 0.0
18/05:00pm 35.4 32.9 9.7 21 15.2 E 13 22 7 12 1010.7 1006.6 0.0
18/04:30pm 35.3 32.0 9.7 21 15.1 SSE 17 24 9 13 1010.9 1006.8 0.0
18/04:00pm 35.4 33.1 10.4 22 14.9 ESE 13 26 7 14 1010.9 1006.8 0.0
18/03:30pm 35.3 32.0 9.7 21 15.1 E 17 22 9 12 1011.3 1007.2 0.0
18/03:00pm 35.7 32.5 11.4 23 14.7 ESE 19 35 10 19 1011.3 1007.2 0.0
18/02:30pm 34.7 31.3 11.2 24 14.1 ESE 20 28 11 15 1011.6 1007.5 0.0
18/02:00pm 34.2 30.8 10.7 24 14.0 ESE 19 32 10 17 1011.9 1007.8 0.0
18/01:30pm 33.7 30.6 11.5 26 13.4 ESE 19 32 10 17 1012.2 1008.1 0.0
18/01:00pm 32.8 29.6 11.3 27 12.9 ESE 19 33 10 18 1012.5 1008.4 0.0
18/12:30pm 31.7 27.9 11.0 28 12.3 SE 22 33 12 18 1012.8 1008.8 0.0
18/12:00pm 31.3 27.1 11.1 29 12.0 SE 24 35 13 19 1013.3 1009.2 0.0
18/11:30am 29.7 25.8 10.8 31 11.1 ESE 22 39 12 21 1013.6 1009.5 0.0
18/11:00am 29.3 25.2 11.4 33 10.6 ESE 24 43 13 23 1013.8 1009.7 0.0
18/10:30am 28.4 23.8 11.0 34 10.2 ESE 26 37 14 20 1014.1 1010.0 0.0
18/10:00am 27.6 22.9 10.8 35 9.7 ESE 26 43 14 23 1014.1 1010.0 0.0
18/09:30am 25.8 20.2 10.0 37 9.0 SE 30 39 16 21 1014.0 1009.9 0.0
18/09:00am 25.3 20.0 10.0 38 8.7 ESE 28 37 15 20 1014.0 1009.9 0.0
18/08:30am 25.0 19.4 10.1 39 8.4 ESE 30 39 16 21 1013.9 1009.8 0.0
18/08:00am 24.2 18.2 10.1 41 8.0 SE 32 43 17 23 1013.7 1009.6 0.0
18/07:30am 23.2 17.1 9.6 42 7.6 ESE 32 41 17 22 1013.8 1009.7 0.0
18/07:00am 22.9 17.4 9.3 42 7.5 SE 28 39 15 21 1013.5 1009.4 0.0
18/06:30am 23.2 17.3 9.2 41 7.7 SE 30 44 16 24 1012.7 1008.6 0.0
18/06:00am 23.3 17.0 9.0 40 7.9 SE 32 41 17 22 1011.9 1007.8 0.0
18/05:30am 23.9 18.3 8.7 38 8.4 SE 28 37 15 20 1011.4 1007.3 0.0
18/05:14am 24.5 18.7 8.0 35 9.0 SE 28 46 15 25 1010.9 1006.8 0.0
18/05:00am 25.1 19.7 6.3 30 10.0 SE 24 35 13 19 1010.5 1006.4 0.0
18/04:30am 25.6 20.0 3.5 24 11.2 SE 22 30 12 16 1010.1 1006.0 0.0
18/04:00am 26.3 19.8 2.9 22 11.8 SE 26 35 14 19 1009.7 1005.6 0.0
18/03:30am 27.0 20.9 2.8 21 12.2 SE 24 33 13 18 1009.4 1005.2 0.0
18/03:00am 27.5 21.4 2.6 20 12.6 SE 24 33 13 18 1009.0 1004.9 0.0
18/02:30am 27.8 21.6 2.1 19 12.9 SE 24 32 13 17 1008.9 1004.8 0.0
18/02:00am 28.0 21.7 1.5 18 13.2 SSE 24 30 13 16 1008.9 1004.8 0.0
18/01:30am 28.4 22.4 -1.6 14 14.1 SSE 20 28 11 15 1009.0 1004.9 0.0
18/01:00am 29.0 22.0 -3.2 12 14.9 SSE 24 32 13 17 1009.0 1004.9 0.0
18/12:30am 29.7 23.3 -5.1 10 15.6 S 20 30 11 16 1009.1 1005.0 0.0
18/12:00am 29.8 24.0 -5.1 10 15.7 S 17 22 9 12 1009.0 1004.9 0.0
 
Date/Time
WST
Temp
°C
App
Temp
°C
Dew
Point
Rel
Hum
%
Delta-T
°C
Wind Press
QNH
hPa
Press
MSL
hPa
Rain
since 9 am
mm
Dir
 
Spd
km/h
Gust
km/h
Spd
kts
Gust
kts
17/11:30pm 30.0 24.0 -6.3 9 16.0 SSW 17 20 9 11 1008.9 1004.8 0.0
17/11:00pm 30.3 25.1 -6.1 9 16.1 SSW 13 17 7 9 1009.1 1005.0 0.0
17/10:30pm 31.1 25.2 -5.5 9 16.5 S 17 26 9 14 1009.0 1004.9 0.0
17/10:00pm 31.6 25.8 -5.1 9 16.7 S 17 20 9 11 1008.9 1004.8 0.0
17/09:30pm 32.0 26.0 -3.4 10 16.6 S 19 24 10 13 1008.5 1004.4 0.0
17/09:00pm 32.4 26.8 -3.1 10 16.8 SSW 17 24 9 13 1008.2 1004.1 0.0
17/08:30pm 32.9 26.8 -2.7 10 17.0 SSW 20 28 11 15 1007.7 1003.5 0.0
17/08:00pm 33.2 26.7 -2.5 10 17.2 SSW 22 30 12 16 1007.6 1003.4 0.0
17/07:30pm 33.7 27.6 -2.1 10 17.4 S 20 28 11 15 1007.0 1002.9 0.0
17/07:00pm 34.3 27.7 -3.1 9 18.0 S 22 30 12 16 1006.6 1002.5 0.0
17/06:30pm 35.5 29.2 -0.8 10 18.2 SSW 22 30 12 16 1006.3 1002.2 0.0
17/06:00pm 36.7 30.9 0.1 10 18.8 SW 20 28 11 15 1005.9 1001.7 0.0
17/05:30pm 37.2 29.4 -0.9 9 19.3 WSW 30 39 16 21 1005.6 1001.4 0.0
17/05:00pm 37.6 31.0 -0.6 9 19.5 SW 24 33 13 18 1005.1 1001.0 0.0
17/04:30pm 38.8 31.9 0.3 9 20.0 W 26 39 14 21 1005.0 1000.9 0.0
17/04:00pm 38.1 31.9 -0.3 9 19.8 WNW 22 30 12 16 1005.0 1000.9 0.0
17/03:30pm 38.7 32.2 0.2 9 20.0 W 24 37 13 20 1005.0 1000.9 0.0
17/03:00pm 37.6 31.4 -0.6 9 19.5 W 22 33 12 18 1005.2 1001.1 0.0
17/02:30pm 39.4 33.7 0.7 9 20.3 WSW 20 37 11 20 1005.4 1001.2 0.0
17/02:00pm 38.9 31.6 0.3 9 20.1 W 28 41 15 22 1005.8 1001.6 0.0
17/01:30pm 37.8 32.1 -0.5 9 19.6 W 19 37 10 20 1006.1 1002.0 0.0
17/01:00pm 38.2 32.0 -0.2 9 19.8 WSW 22 37 12 20 1006.3 1002.2 0.0
17/12:30pm 37.1 30.8 -1.0 9 19.2 W 22 37 12 20 1006.5 1002.4 0.0
17/12:00pm 36.3 30.7 -0.2 10 18.6 WSW 19 33 10 18 1006.6 1002.5 0.0
17/11:30am 36.8 30.7 0.2 10 18.8 SW 22 32 12 17 1006.9 1002.8 0.0
17/11:00am 35.0 29.8 0.2 11 17.7 SW 17 30 9 16 1007.4 1003.2 0.0
17/10:30am 34.0 28.5 0.6 12 17.0 SW 19 30 10 16 1007.6 1003.4 0.0
17/10:00am 33.1 28.2 2.0 14 16.1 SW 17 24 9 13 1007.7 1003.5 0.0
17/09:30am 32.5 27.7 2.5 15 15.6 SSW 17 24 9 13 1007.8 1003.7 0.0
17/09:00am 31.3 27.2 2.5 16 14.9 SSW 13 20 7 11 1007.9 1003.8 0.0

Other Formats:

Comma delimited format used in spreadsheet applications
http://www.bom.gov.au/fwo/IDW60801/IDW60801.99434.axf

JavaScript Object Notation format (JSON) in row-major order
http://www.bom.gov.au/fwo/IDW60801/IDW60801.99434.json